Portada
METAR-TAF:

METAR-TAF

Aeroports :

Aeroport Internacional d'Al-Ain

Al-Ain, Emirats Àrabs Units

latitud: 24-16N, longitud: 055-36E, altitud: 265 m

Observació

L'informe es va fer fa 5 minuts, a les 01:00 UTC
Vent 4 kt del Nord/Nord-Est
Temperatura 33°C
Humitat 46%
Pressió 997 hPa
Visibilitat: 8000 m

METAR: OMAL 270100Z 03004KT 8000 NSC 33/20 Q0997 NOSIG

Hora: 05:05 (01:05 UTC)

Pronòstic

L'informe es va fer fa 2 hores i 5 minuts, a les 23:00 UTC
Pronòstic vàlid del 27 a les 00 UTC al 28 a les 06 UTC
Vent 6 kt del Est/Sud-Est
Visibilitat: 8000 m
Evolucionant progressivament
l' 27 a les 07 UTC al 27 a les 09 UTC
Vent 12 kt del Nord-Oest
Evolucionant progressivament
l' 27 a les 18 UTC al 27 a les 20 UTC
Vent 5 kt del Est
Evolucionant progressivament
l' 28 a les 02 UTC al 28 a les 04 UTC
Vent 10 kt del Sud

TAF: OMAL 262300Z 2700/2806 12006KT 8000 NSC BECMG 2707/2709 32012KT BECMG 2718/2720 10005KT BECMG 2802/2804 18010KT

Observacions i pronòstics meteorològics de més de 4000 aeroports (METAR i TAF).

Les estacions disponibles són els punts grocs i vermells al mapa.

Posi el ratolí al punt desitjat per veure el nom de l'estació.

Feu clic per veure les observacions i els pronòstics meteorològics.

Per canviar el mapa: feu clic els botons verds amb una creu de color negre per apropar; al botó verd amb un guió per allunyar la imatge; o en les fletxes verdes per a mapes adjacents.


METAR-TAF: